sensor_id;sensor_type;location;lat;lon;timestamp;temperature;humidity
9271;DHT22;4673;53.458;9.940;2024-03-25T00:00:12;5.60;55.60
9271;DHT22;4673;53.458;9.940;2024-03-25T00:02:39;5.60;55.40
9271;DHT22;4673;53.458;9.940;2024-03-25T00:05:06;5.60;55.20
9271;DHT22;4673;53.458;9.940;2024-03-25T00:07:35;5.60;54.80
9271;DHT22;4673;53.458;9.940;2024-03-25T00:10:01;5.50;54.10
9271;DHT22;4673;53.458;9.940;2024-03-25T00:12:27;5.50;54.60
9271;DHT22;4673;53.458;9.940;2024-03-25T00:14:52;5.50;54.40
9271;DHT22;4673;53.458;9.940;2024-03-25T00:17:18;5.50;54.40
9271;DHT22;4673;53.458;9.940;2024-03-25T00:19:45;5.40;54.10
9271;DHT22;4673;53.458;9.940;2024-03-25T00:22:19;5.40;54.50
9271;DHT22;4673;53.458;9.940;2024-03-25T00:24:48;5.40;53.70
9271;DHT22;4673;53.458;9.940;2024-03-25T00:27:15;5.40;53.80
9271;DHT22;4673;53.458;9.940;2024-03-25T00:29:41;5.40;53.40
9271;DHT22;4673;53.458;9.940;2024-03-25T00:32:07;5.40;53.50
9271;DHT22;4673;53.458;9.940;2024-03-25T00:34:33;5.40;53.10
9271;DHT22;4673;53.458;9.940;2024-03-25T00:37:00;5.40;52.60
9271;DHT22;4673;53.458;9.940;2024-03-25T00:39:26;5.50;52.20
9271;DHT22;4673;53.458;9.940;2024-03-25T00:41:52;5.50;51.80
9271;DHT22;4673;53.458;9.940;2024-03-25T00:44:18;5.40;51.20
9271;DHT22;4673;53.458;9.940;2024-03-25T00:46:43;5.50;51.40
9271;DHT22;4673;53.458;9.940;2024-03-25T00:49:10;5.40;50.20
9271;DHT22;4673;53.458;9.940;2024-03-25T00:51:36;5.40;50.90
9271;DHT22;4673;53.458;9.940;2024-03-25T00:54:02;5.40;51.00
9271;DHT22;4673;53.458;9.940;2024-03-25T00:56:29;5.40;51.10
9271;DHT22;4673;53.458;9.940;2024-03-25T00:58:55;5.40;50.80
9271;DHT22;4673;53.458;9.940;2024-03-25T01:01:22;5.30;51.50
9271;DHT22;4673;53.458;9.940;2024-03-25T01:03:48;5.30;51.90
9271;DHT22;4673;53.458;9.940;2024-03-25T01:06:14;5.30;52.50
9271;DHT22;4673;53.458;9.940;2024-03-25T01:08:39;5.30;52.70
9271;DHT22;4673;53.458;9.940;2024-03-25T01:11:05;5.30;53.40
9271;DHT22;4673;53.458;9.940;2024-03-25T01:13:31;5.30;53.90
9271;DHT22;4673;53.458;9.940;2024-03-25T01:15:57;5.30;53.90
9271;DHT22;4673;53.458;9.940;2024-03-25T01:18:22;5.30;54.20
9271;DHT22;4673;53.458;9.940;2024-03-25T01:20:48;5.30;54.50
9271;DHT22;4673;53.458;9.940;2024-03-25T01:23:15;5.30;54.10
9271;DHT22;4673;53.458;9.940;2024-03-25T01:25:41;5.30;54.10
9271;DHT22;4673;53.458;9.940;2024-03-25T01:28:07;5.20;54.10
9271;DHT22;4673;53.458;9.940;2024-03-25T01:30:32;5.20;54.30
9271;DHT22;4673;53.458;9.940;2024-03-25T01:33:01;5.30;54.60
9271;DHT22;4673;53.458;9.940;2024-03-25T01:35:27;5.30;54.70
9271;DHT22;4673;53.458;9.940;2024-03-25T01:37:52;5.40;54.60
9271;DHT22;4673;53.458;9.940;2024-03-25T01:40:18;5.40;54.70
9271;DHT22;4673;53.458;9.940;2024-03-25T01:42:54;5.40;54.70
9271;DHT22;4673;53.458;9.940;2024-03-25T01:45:20;5.50;54.90
9271;DHT22;4673;53.458;9.940;2024-03-25T01:47:46;5.50;54.30
9271;DHT22;4673;53.458;9.940;2024-03-25T01:50:11;5.50;54.40
9271;DHT22;4673;53.458;9.940;2024-03-25T01:52:38;5.40;53.40
9271;DHT22;4673;53.458;9.940;2024-03-25T01:55:07;5.40;54.10
9271;DHT22;4673;53.458;9.940;2024-03-25T01:57:34;5.40;54.00
9271;DHT22;4673;53.458;9.940;2024-03-25T02:00:00;5.40;54.80
9271;DHT22;4673;53.458;9.940;2024-03-25T02:02:25;5.50;55.20
9271;DHT22;4673;53.458;9.940;2024-03-25T02:04:51;5.50;55.10
9271;DHT22;4673;53.458;9.940;2024-03-25T02:07:18;5.50;54.70
9271;DHT22;4673;53.458;9.940;2024-03-25T02:09:44;5.50;55.10
9271;DHT22;4673;53.458;9.940;2024-03-25T02:12:10;5.40;54.10
9271;DHT22;4673;53.458;9.940;2024-03-25T02:14:37;5.40;54.20
9271;DHT22;4673;53.458;9.940;2024-03-25T02:17:03;5.50;54.60
9271;DHT22;4673;53.458;9.940;2024-03-25T02:19:30;5.40;54.40
9271;DHT22;4673;53.458;9.940;2024-03-25T02:21:56;5.50;54.90
9271;DHT22;4673;53.458;9.940;2024-03-25T02:24:23;5.50;54.20
9271;DHT22;4673;53.458;9.940;2024-03-25T02:26:51;5.40;54.00
9271;DHT22;4673;53.458;9.940;2024-03-25T02:29:16;5.40;54.40
9271;DHT22;4673;53.458;9.940;2024-03-25T02:31:42;5.50;54.90
9271;DHT22;4673;53.458;9.940;2024-03-25T02:34:07;5.50;54.70
9271;DHT22;4673;53.458;9.940;2024-03-25T02:36:33;5.50;54.30
9271;DHT22;4673;53.458;9.940;2024-03-25T02:38:59;5.40;54.30
9271;DHT22;4673;53.458;9.940;2024-03-25T02:41:25;5.40;54.00
9271;DHT22;4673;53.458;9.940;2024-03-25T02:43:52;5.40;54.00
9271;DHT22;4673;53.458;9.940;2024-03-25T02:46:18;5.50;54.70
9271;DHT22;4673;53.458;9.940;2024-03-25T02:48:46;5.50;54.70
9271;DHT22;4673;53.458;9.940;2024-03-25T02:51:11;5.40;53.90
9271;DHT22;4673;53.458;9.940;2024-03-25T02:53:37;5.40;54.50
9271;DHT22;4673;53.458;9.940;2024-03-25T02:56:03;5.30;54.10
9271;DHT22;4673;53.458;9.940;2024-03-25T02:58:28;5.40;54.60
9271;DHT22;4673;53.458;9.940;2024-03-25T03:00:54;5.40;54.80
9271;DHT22;4673;53.458;9.940;2024-03-25T03:03:20;5.40;55.00
9271;DHT22;4673;53.458;9.940;2024-03-25T03:05:45;5.40;54.40
9271;DHT22;4673;53.458;9.940;2024-03-25T03:08:11;5.40;54.70
9271;DHT22;4673;53.458;9.940;2024-03-25T03:10:37;5.40;54.60
9271;DHT22;4673;53.458;9.940;2024-03-25T03:13:02;5.40;54.50
9271;DHT22;4673;53.458;9.940;2024-03-25T03:15:28;5.50;54.80
9271;DHT22;4673;53.458;9.940;2024-03-25T03:17:54;5.40;54.10
9271;DHT22;4673;53.458;9.940;2024-03-25T03:20:20;5.40;54.40
9271;DHT22;4673;53.458;9.940;2024-03-25T03:22:46;5.40;54.20
9271;DHT22;4673;53.458;9.940;2024-03-25T03:25:11;5.40;54.30
9271;DHT22;4673;53.458;9.940;2024-03-25T03:27:37;5.30;53.10
9271;DHT22;4673;53.458;9.940;2024-03-25T03:30:03;5.30;53.10
9271;DHT22;4673;53.458;9.940;2024-03-25T03:32:28;5.20;51.60
9271;DHT22;4673;53.458;9.940;2024-03-25T03:34:54;5.20;52.60
9271;DHT22;4673;53.458;9.940;2024-03-25T03:37:20;5.20;53.30
9271;DHT22;4673;53.458;9.940;2024-03-25T03:39:45;5.10;52.70
9271;DHT22;4673;53.458;9.940;2024-03-25T03:42:11;5.00;52.40
9271;DHT22;4673;53.458;9.940;2024-03-25T03:44:37;5.00;51.90
9271;DHT22;4673;53.458;9.940;2024-03-25T03:47:02;5.00;52.20
9271;DHT22;4673;53.458;9.940;2024-03-25T03:49:28;5.00;52.30
9271;DHT22;4673;53.458;9.940;2024-03-25T03:51:53;5.00;52.20
9271;DHT22;4673;53.458;9.940;2024-03-25T03:54:19;5.00;51.30
9271;DHT22;4673;53.458;9.940;2024-03-25T03:56:45;5.00;50.40
9271;DHT22;4673;53.458;9.940;2024-03-25T03:59:10;5.00;51.10
9271;DHT22;4673;53.458;9.940;2024-03-25T04:01:36;5.10;50.80
9271;DHT22;4673;53.458;9.940;2024-03-25T04:04:02;5.10;51.00
9271;DHT22;4673;53.458;9.940;2024-03-25T04:06:27;5.20;51.40
9271;DHT22;4673;53.458;9.940;2024-03-25T04:08:53;5.20;51.30
9271;DHT22;4673;53.458;9.940;2024-03-25T04:11:19;5.30;50.60
9271;DHT22;4673;53.458;9.940;2024-03-25T04:13:46;5.30;50.40
9271;DHT22;4673;53.458;9.940;2024-03-25T04:16:12;5.20;50.30
9271;DHT22;4673;53.458;9.940;2024-03-25T04:18:38;5.20;49.70
9271;DHT22;4673;53.458;9.940;2024-03-25T04:21:03;5.10;49.40
9271;DHT22;4673;53.458;9.940;2024-03-25T04:23:29;5.10;49.80
9271;DHT22;4673;53.458;9.940;2024-03-25T04:25:55;5.10;50.10
9271;DHT22;4673;53.458;9.940;2024-03-25T04:28:21;5.10;50.30
9271;DHT22;4673;53.458;9.940;2024-03-25T04:30:52;5.10;49.90
9271;DHT22;4673;53.458;9.940;2024-03-25T04:33:17;5.10;50.50
9271;DHT22;4673;53.458;9.940;2024-03-25T04:35:44;5.10;50.70
9271;DHT22;4673;53.458;9.940;2024-03-25T04:38:10;5.20;50.90
9271;DHT22;4673;53.458;9.940;2024-03-25T04:40:36;5.20;50.90
9271;DHT22;4673;53.458;9.940;2024-03-25T04:43:02;5.10;50.50
9271;DHT22;4673;53.458;9.940;2024-03-25T04:45:28;5.00;50.10
9271;DHT22;4673;53.458;9.940;2024-03-25T04:47:53;5.00;50.40
9271;DHT22;4673;53.458;9.940;2024-03-25T04:50:19;4.90;50.50
9271;DHT22;4673;53.458;9.940;2024-03-25T04:52:44;4.80;50.50
9271;DHT22;4673;53.458;9.940;2024-03-25T04:55:10;4.80;51.00
9271;DHT22;4673;53.458;9.940;2024-03-25T04:57:36;4.70;51.30
9271;DHT22;4673;53.458;9.940;2024-03-25T05:00:02;4.70;51.60
9271;DHT22;4673;53.458;9.940;2024-03-25T05:02:28;4.60;51.70
9271;DHT22;4673;53.458;9.940;2024-03-25T05:04:53;4.60;51.90
9271;DHT22;4673;53.458;9.940;2024-03-25T05:07:19;4.50;52.20
9271;DHT22;4673;53.458;9.940;2024-03-25T05:09:45;4.60;53.00
9271;DHT22;4673;53.458;9.940;2024-03-25T05:12:10;4.60;53.20
9271;DHT22;4673;53.458;9.940;2024-03-25T05:14:36;4.60;52.80
9271;DHT22;4673;53.458;9.940;2024-03-25T05:17:02;4.70;52.90
9271;DHT22;4673;53.458;9.940;2024-03-25T05:19:29;4.80;52.30
9271;DHT22;4673;53.458;9.940;2024-03-25T05:21:55;4.80;52.40
9271;DHT22;4673;53.458;9.940;2024-03-25T05:24:21;4.90;52.30
9271;DHT22;4673;53.458;9.940;2024-03-25T05:26:46;4.90;52.20
9271;DHT22;4673;53.458;9.940;2024-03-25T05:29:12;4.90;51.50
9271;DHT22;4673;53.458;9.940;2024-03-25T05:31:38;4.90;51.30
9271;DHT22;4673;53.458;9.940;2024-03-25T05:34:04;4.90;51.30
9271;DHT22;4673;53.458;9.940;2024-03-25T05:36:34;4.80;51.30
9271;DHT22;4673;53.458;9.940;2024-03-25T05:38:59;4.90;51.70
9271;DHT22;4673;53.458;9.940;2024-03-25T05:41:25;4.80;51.40
9271;DHT22;4673;53.458;9.940;2024-03-25T05:43:51;4.90;51.70
9271;DHT22;4673;53.458;9.940;2024-03-25T05:46:16;5.00;52.10
9271;DHT22;4673;53.458;9.940;2024-03-25T05:48:42;5.30;53.30
9271;DHT22;4673;53.458;9.940;2024-03-25T05:51:08;5.50;53.40
9271;DHT22;4673;53.458;9.940;2024-03-25T05:53:34;5.70;52.10
9271;DHT22;4673;53.458;9.940;2024-03-25T05:56:00;5.70;50.30
9271;DHT22;4673;53.458;9.940;2024-03-25T05:58:26;5.70;49.70
9271;DHT22;4673;53.458;9.940;2024-03-25T06:00:52;5.90;50.30
9271;DHT22;4673;53.458;9.940;2024-03-25T06:03:21;6.50;50.90
9271;DHT22;4673;53.458;9.940;2024-03-25T06:05:47;7.10;50.10
9271;DHT22;4673;53.458;9.940;2024-03-25T06:08:13;7.40;46.00
9271;DHT22;4673;53.458;9.940;2024-03-25T06:10:46;7.50;40.20
9271;DHT22;4673;53.458;9.940;2024-03-25T06:13:12;7.10;39.80
9271;DHT22;4673;53.458;9.940;2024-03-25T06:15:38;6.90;40.20
9271;DHT22;4673;53.458;9.940;2024-03-25T06:18:04;6.70;39.70
9271;DHT22;4673;53.458;9.940;2024-03-25T06:20:29;6.60;40.80
9271;DHT22;4673;53.458;9.940;2024-03-25T06:22:55;6.70;42.10
9271;DHT22;4673;53.458;9.940;2024-03-25T06:25:21;6.90;41.80
9271;DHT22;4673;53.458;9.940;2024-03-25T06:27:47;6.90;42.20
9271;DHT22;4673;53.458;9.940;2024-03-25T06:30:12;6.90;41.10
9271;DHT22;4673;53.458;9.940;2024-03-25T06:32:56;6.80;40.60
9271;DHT22;4673;53.458;9.940;2024-03-25T06:35:43;6.70;41.60
9271;DHT22;4673;53.458;9.940;2024-03-25T06:38:10;6.50;41.20
9271;DHT22;4673;53.458;9.940;2024-03-25T06:40:37;6.50;42.10
9271;DHT22;4673;53.458;9.940;2024-03-25T06:43:03;6.60;43.00
9271;DHT22;4673;53.458;9.940;2024-03-25T06:45:28;6.60;42.10
9271;DHT22;4673;53.458;9.940;2024-03-25T06:47:55;6.40;43.00
9271;DHT22;4673;53.458;9.940;2024-03-25T06:50:20;6.30;43.80
9271;DHT22;4673;53.458;9.940;2024-03-25T06:52:46;6.40;44.60
9271;DHT22;4673;53.458;9.940;2024-03-25T06:55:11;6.40;44.80
9271;DHT22;4673;53.458;9.940;2024-03-25T06:57:37;6.30;44.60
9271;DHT22;4673;53.458;9.940;2024-03-25T07:00:03;6.30;45.60
9271;DHT22;4673;53.458;9.940;2024-03-25T07:02:32;6.20;46.00
9271;DHT22;4673;53.458;9.940;2024-03-25T07:04:58;6.20;47.10
9271;DHT22;4673;53.458;9.940;2024-03-25T07:07:23;6.30;48.30
9271;DHT22;4673;53.458;9.940;2024-03-25T07:09:49;6.30;48.50
9271;DHT22;4673;53.458;9.940;2024-03-25T07:12:14;6.40;49.10
9271;DHT22;4673;53.458;9.940;2024-03-25T07:14:40;6.40;49.30
9271;DHT22;4673;53.458;9.940;2024-03-25T07:17:06;6.40;49.40
9271;DHT22;4673;53.458;9.940;2024-03-25T07:19:32;6.50;50.00
9271;DHT22;4673;53.458;9.940;2024-03-25T07:21:57;6.60;50.50
9271;DHT22;4673;53.458;9.940;2024-03-25T07:24:23;6.60;50.20
9271;DHT22;4673;53.458;9.940;2024-03-25T07:26:48;6.70;50.20
9271;DHT22;4673;53.458;9.940;2024-03-25T07:29:15;6.90;50.70
9271;DHT22;4673;53.458;9.940;2024-03-25T07:31:41;6.90;49.00
9271;DHT22;4673;53.458;9.940;2024-03-25T07:34:07;7.00;48.60
9271;DHT22;4673;53.458;9.940;2024-03-25T07:36:40;7.10;49.40
9271;DHT22;4673;53.458;9.940;2024-03-25T07:39:05;7.30;49.30
9271;DHT22;4673;53.458;9.940;2024-03-25T07:41:31;7.30;48.10
9271;DHT22;4673;53.458;9.940;2024-03-25T07:43:57;7.20;47.00
9271;DHT22;4673;53.458;9.940;2024-03-25T07:46:23;7.20;47.10
9271;DHT22;4673;53.458;9.940;2024-03-25T07:48:48;7.40;48.00
9271;DHT22;4673;53.458;9.940;2024-03-25T07:51:14;7.70;47.70
9271;DHT22;4673;53.458;9.940;2024-03-25T07:53:39;7.80;46.10
9271;DHT22;4673;53.458;9.940;2024-03-25T07:56:05;7.90;46.20
9271;DHT22;4673;53.458;9.940;2024-03-25T07:58:31;7.90;44.50
9271;DHT22;4673;53.458;9.940;2024-03-25T08:00:57;7.90;44.00
9271;DHT22;4673;53.458;9.940;2024-03-25T08:03:22;7.90;43.50
9271;DHT22;4673;53.458;9.940;2024-03-25T08:05:50;7.90;43.30
9271;DHT22;4673;53.458;9.940;2024-03-25T08:08:16;7.80;42.80
9271;DHT22;4673;53.458;9.940;2024-03-25T08:10:41;7.80;43.00
9271;DHT22;4673;53.458;9.940;2024-03-25T08:13:07;7.90;43.50
9271;DHT22;4673;53.458;9.940;2024-03-25T08:15:33;8.10;43.30
9271;DHT22;4673;53.458;9.940;2024-03-25T08:17:58;8.10;42.00
9271;DHT22;4673;53.458;9.940;2024-03-25T08:20:24;8.10;42.00
9271;DHT22;4673;53.458;9.940;2024-03-25T08:22:50;8.10;40.80
9271;DHT22;4673;53.458;9.940;2024-03-25T08:25:15;8.00;41.00
9271;DHT22;4673;53.458;9.940;2024-03-25T08:27:41;7.60;37.70
9271;DHT22;4673;53.458;9.940;2024-03-25T08:30:08;7.40;40.80
9271;DHT22;4673;53.458;9.940;2024-03-25T08:32:33;7.30;41.60
9271;DHT22;4673;53.458;9.940;2024-03-25T08:34:59;7.30;42.00
9271;DHT22;4673;53.458;9.940;2024-03-25T08:37:25;7.30;42.00
9271;DHT22;4673;53.458;9.940;2024-03-25T08:39:50;7.30;42.10
9271;DHT22;4673;53.458;9.940;2024-03-25T08:42:16;7.30;41.00
9271;DHT22;4673;53.458;9.940;2024-03-25T08:44:42;7.50;41.90
9271;DHT22;4673;53.458;9.940;2024-03-25T08:47:07;7.80;40.90
9271;DHT22;4673;53.458;9.940;2024-03-25T08:49:33;8.20;40.10
9271;DHT22;4673;53.458;9.940;2024-03-25T08:51:59;8.40;32.50
9271;DHT22;4673;53.458;9.940;2024-03-25T08:54:27;8.70;36.20
9271;DHT22;4673;53.458;9.940;2024-03-25T08:56:52;8.90;32.10
9271;DHT22;4673;53.458;9.940;2024-03-25T08:59:18;8.80;30.60
9271;DHT22;4673;53.458;9.940;2024-03-25T09:01:44;8.80;24.30
9271;DHT22;4673;53.458;9.940;2024-03-25T09:04:09;8.80;27.00
9271;DHT22;4673;53.458;9.940;2024-03-25T09:06:35;8.90;27.10
9271;DHT22;4673;53.458;9.940;2024-03-25T09:09:02;8.60;22.10
9271;DHT22;4673;53.458;9.940;2024-03-25T09:11:46;8.80;23.30
9271;DHT22;4673;53.458;9.940;2024-03-25T09:14:11;8.90;22.40
9271;DHT22;4673;53.458;9.940;2024-03-25T09:16:37;9.10;22.70
9271;DHT22;4673;53.458;9.940;2024-03-25T09:19:03;9.20;22.00
9271;DHT22;4673;53.458;9.940;2024-03-25T09:21:28;9.00;20.30
9271;DHT22;4673;53.458;9.940;2024-03-25T09:23:55;9.00;19.80
9271;DHT22;4673;53.458;9.940;2024-03-25T09:26:23;8.80;17.00
9271;DHT22;4673;53.458;9.940;2024-03-25T09:28:49;8.50;16.70
9271;DHT22;4673;53.458;9.940;2024-03-25T09:31:15;8.70;19.80
9271;DHT22;4673;53.458;9.940;2024-03-25T09:33:40;8.80;15.80
9271;DHT22;4673;53.458;9.940;2024-03-25T09:36:06;8.80;16.60
9271;DHT22;4673;53.458;9.940;2024-03-25T09:38:32;8.80;18.00
9271;DHT22;4673;53.458;9.940;2024-03-25T09:40:58;8.80;17.70
9271;DHT22;4673;53.458;9.940;2024-03-25T09:43:27;8.80;18.00
9271;DHT22;4673;53.458;9.940;2024-03-25T09:45:55;9.00;19.90
9271;DHT22;4673;53.458;9.940;2024-03-25T09:48:24;9.40;20.70
9271;DHT22;4673;53.458;9.940;2024-03-25T09:50:50;9.40;16.40
9271;DHT22;4673;53.458;9.940;2024-03-25T09:53:17;9.30;16.50
9271;DHT22;4673;53.458;9.940;2024-03-25T09:55:43;9.40;18.10
9271;DHT22;4673;53.458;9.940;2024-03-25T09:58:10;9.30;15.90
9271;DHT22;4673;53.458;9.940;2024-03-25T10:00:36;9.40;17.50
9271;DHT22;4673;53.458;9.940;2024-03-25T10:03:01;9.60;17.40
9271;DHT22;4673;53.458;9.940;2024-03-25T10:05:27;9.60;16.90
9271;DHT22;4673;53.458;9.940;2024-03-25T10:07:53;9.40;16.70
9271;DHT22;4673;53.458;9.940;2024-03-25T10:10:20;9.20;18.30
9271;DHT22;4673;53.458;9.940;2024-03-25T10:12:46;9.00;20.20
9271;DHT22;4673;53.458;9.940;2024-03-25T10:15:17;9.10;21.50
9271;DHT22;4673;53.458;9.940;2024-03-25T10:17:44;8.80;20.40
9271;DHT22;4673;53.458;9.940;2024-03-25T10:20:16;8.50;17.20
9271;DHT22;4673;53.458;9.940;2024-03-25T10:22:42;8.30;16.50
9271;DHT22;4673;53.458;9.940;2024-03-25T10:25:20;8.10;17.40
9271;DHT22;4673;53.458;9.940;2024-03-25T10:27:59;8.10;17.00
9271;DHT22;4673;53.458;9.940;2024-03-25T10:30:28;8.50;17.20
9271;DHT22;4673;53.458;9.940;2024-03-25T10:35:26;8.80;14.40
9271;DHT22;4673;53.458;9.940;2024-03-25T10:38:01;8.80;12.40
9271;DHT22;4673;53.458;9.940;2024-03-25T10:40:31;8.70;12.80
9271;DHT22;4673;53.458;9.940;2024-03-25T10:45:28;7.90;14.90
9271;DHT22;4673;53.458;9.940;2024-03-25T10:47:57;8.10;16.70
9271;DHT22;4673;53.458;9.940;2024-03-25T10:50:28;8.30;15.70
9271;DHT22;4673;53.458;9.940;2024-03-25T10:52:54;8.70;16.20
9271;DHT22;4673;53.458;9.940;2024-03-25T10:55:21;8.90;12.10
9271;DHT22;4673;53.458;9.940;2024-03-25T10:57:48;9.00;9.80
9271;DHT22;4673;53.458;9.940;2024-03-25T11:00:15;8.90;10.90
9271;DHT22;4673;53.458;9.940;2024-03-25T11:02:43;9.10;12.60
9271;DHT22;4673;53.458;9.940;2024-03-25T11:05:10;8.70;7.80
9271;DHT22;4673;53.458;9.940;2024-03-25T11:07:36;8.60;8.40
9271;DHT22;4673;53.458;9.940;2024-03-25T11:10:07;8.60;11.40
9271;DHT22;4673;53.458;9.940;2024-03-25T11:12:37;8.80;12.40
9271;DHT22;4673;53.458;9.940;2024-03-25T11:15:05;8.80;9.70
9271;DHT22;4673;53.458;9.940;2024-03-25T11:17:31;9.00;10.10
9271;DHT22;4673;53.458;9.940;2024-03-25T11:20:08;9.20;10.70
9271;DHT22;4673;53.458;9.940;2024-03-25T11:22:35;9.70;10.50
9271;DHT22;4673;53.458;9.940;2024-03-25T11:25:07;10.00;5.50
9271;DHT22;4673;53.458;9.940;2024-03-25T11:27:36;10.30;5.00
9271;DHT22;4673;53.458;9.940;2024-03-25T11:30:05;10.30;5.00
9271;DHT22;4673;53.458;9.940;2024-03-25T11:33:01;10.30;5.00
9271;DHT22;4673;53.458;9.940;2024-03-25T11:35:28;10.20;5.00
9271;DHT22;4673;53.458;9.940;2024-03-25T11:37:53;10.20;5.00
9271;DHT22;4673;53.458;9.940;2024-03-25T11:40:19;10.30;5.00
9271;DHT22;4673;53.458;9.940;2024-03-25T11:42:45;10.40;5.00
9271;DHT22;4673;53.458;9.940;2024-03-25T11:45:16;10.00;5.00
9271;DHT22;4673;53.458;9.940;2024-03-25T11:47:45;9.50;5.00
9271;DHT22;4673;53.458;9.940;2024-03-25T11:50:15;9.50;5.00
9271;DHT22;4673;53.458;9.940;2024-03-25T11:52:41;9.80;5.00
9271;DHT22;4673;53.458;9.940;2024-03-25T11:55:07;10.30;5.00
9271;DHT22;4673;53.458;9.940;2024-03-25T11:57:35;10.60;5.00
9271;DHT22;4673;53.458;9.940;2024-03-25T12:00:01;10.00;5.00
9271;DHT22;4673;53.458;9.940;2024-03-25T12:02:30;10.00;5.00
9271;DHT22;4673;53.458;9.940;2024-03-25T12:04:56;10.10;5.00
9271;DHT22;4673;53.458;9.940;2024-03-25T12:07:21;9.40;5.00
9271;DHT22;4673;53.458;9.940;2024-03-25T12:09:47;9.30;5.00
9271;DHT22;4673;53.458;9.940;2024-03-25T12:12:32;9.50;5.00
9271;DHT22;4673;53.458;9.940;2024-03-25T12:14:58;9.90;5.00
9271;DHT22;4673;53.458;9.940;2024-03-25T12:17:24;10.30;5.00
9271;DHT22;4673;53.458;9.940;2024-03-25T12:20:05;10.80;5.00
9271;DHT22;4673;53.458;9.940;2024-03-25T12:22:33;10.60;5.00
9271;DHT22;4673;53.458;9.940;2024-03-25T12:25:01;10.90;5.00
9271;DHT22;4673;53.458;9.940;2024-03-25T12:27:30;11.30;5.00
9271;DHT22;4673;53.458;9.940;2024-03-25T12:30:02;11.40;5.00
9271;DHT22;4673;53.458;9.940;2024-03-25T12:32:42;10.60;5.00
9271;DHT22;4673;53.458;9.940;2024-03-25T12:35:15;9.70;5.00
9271;DHT22;4673;53.458;9.940;2024-03-25T12:37:45;9.00;7.70
9271;DHT22;4673;53.458;9.940;2024-03-25T12:40:25;8.10;12.90
9271;DHT22;4673;53.458;9.940;2024-03-25T12:42:54;8.00;19.30
9271;DHT22;4673;53.458;9.940;2024-03-25T12:45:24;7.80;24.10
9271;DHT22;4673;53.458;9.940;2024-03-25T12:47:53;7.70;25.40
9271;DHT22;4673;53.458;9.940;2024-03-25T12:50:19;7.70;26.90
9271;DHT22;4673;53.458;9.940;2024-03-25T12:52:46;7.60;25.40
9271;DHT22;4673;53.458;9.940;2024-03-25T12:55:11;7.70;27.10
9271;DHT22;4673;53.458;9.940;2024-03-25T12:57:37;8.00;28.60
9271;DHT22;4673;53.458;9.940;2024-03-25T13:00:03;8.30;27.50
9271;DHT22;4673;53.458;9.940;2024-03-25T13:02:30;8.40;26.90
9271;DHT22;4673;53.458;9.940;2024-03-25T13:04:56;8.50;27.80
9271;DHT22;4673;53.458;9.940;2024-03-25T13:07:22;8.40;24.20
9271;DHT22;4673;53.458;9.940;2024-03-25T13:09:47;8.10;23.50
9271;DHT22;4673;53.458;9.940;2024-03-25T13:12:13;8.00;25.70
9271;DHT22;4673;53.458;9.940;2024-03-25T13:14:39;8.00;21.80
9271;DHT22;4673;53.458;9.940;2024-03-25T13:17:04;8.20;25.60
9271;DHT22;4673;53.458;9.940;2024-03-25T13:19:31;8.50;25.20
9271;DHT22;4673;53.458;9.940;2024-03-25T13:21:56;8.80;23.80
9271;DHT22;4673;53.458;9.940;2024-03-25T13:24:22;8.90;19.50
9271;DHT22;4673;53.458;9.940;2024-03-25T13:26:48;8.80;15.20
9271;DHT22;4673;53.458;9.940;2024-03-25T13:29:13;8.90;15.00
9271;DHT22;4673;53.458;9.940;2024-03-25T13:31:39;8.90;15.40
9271;DHT22;4673;53.458;9.940;2024-03-25T13:34:05;9.20;17.60
9271;DHT22;4673;53.458;9.940;2024-03-25T13:36:31;9.30;18.00
9271;DHT22;4673;53.458;9.940;2024-03-25T13:38:57;9.30;11.10
9271;DHT22;4673;53.458;9.940;2024-03-25T13:41:23;9.00;12.60
9271;DHT22;4673;53.458;9.940;2024-03-25T13:43:49;8.80;15.30
9271;DHT22;4673;53.458;9.940;2024-03-25T13:46:15;8.70;14.90
9271;DHT22;4673;53.458;9.940;2024-03-25T13:48:40;8.70;17.50
9271;DHT22;4673;53.458;9.940;2024-03-25T13:51:07;8.60;18.70
9271;DHT22;4673;53.458;9.940;2024-03-25T13:53:33;8.50;20.50
9271;DHT22;4673;53.458;9.940;2024-03-25T13:55:59;8.60;23.60
9271;DHT22;4673;53.458;9.940;2024-03-25T13:58:26;8.90;25.10
9271;DHT22;4673;53.458;9.940;2024-03-25T14:00:51;9.50;27.60
9271;DHT22;4673;53.458;9.940;2024-03-25T14:03:17;9.90;23.60
9271;DHT22;4673;53.458;9.940;2024-03-25T14:05:44;10.10;17.90
9271;DHT22;4673;53.458;9.940;2024-03-25T14:08:10;10.20;17.00
9271;DHT22;4673;53.458;9.940;2024-03-25T14:10:36;10.10;14.50
9271;DHT22;4673;53.458;9.940;2024-03-25T14:13:01;10.20;15.40
9271;DHT22;4673;53.458;9.940;2024-03-25T14:15:28;10.10;14.00
9271;DHT22;4673;53.458;9.940;2024-03-25T14:17:54;10.00;10.30
9271;DHT22;4673;53.458;9.940;2024-03-25T14:20:20;9.70;10.70
9271;DHT22;4673;53.458;9.940;2024-03-25T14:22:45;9.50;9.50
9271;DHT22;4673;53.458;9.940;2024-03-25T14:25:11;9.30;8.00
9271;DHT22;4673;53.458;9.940;2024-03-25T14:27:37;9.10;10.10
9271;DHT22;4673;53.458;9.940;2024-03-25T14:30:02;9.20;10.20
9271;DHT22;4673;53.458;9.940;2024-03-25T14:32:28;9.30;9.80
9271;DHT22;4673;53.458;9.940;2024-03-25T14:34:53;9.30;9.70
9271;DHT22;4673;53.458;9.940;2024-03-25T14:37:21;9.50;10.80
9271;DHT22;4673;53.458;9.940;2024-03-25T14:39:46;9.60;9.60
9271;DHT22;4673;53.458;9.940;2024-03-25T14:42:12;9.70;10.20
9271;DHT22;4673;53.458;9.940;2024-03-25T14:44:38;9.80;10.50
9271;DHT22;4673;53.458;9.940;2024-03-25T14:47:04;9.90;9.50
9271;DHT22;4673;53.458;9.940;2024-03-25T14:49:30;9.90;8.80
9271;DHT22;4673;53.458;9.940;2024-03-25T14:51:56;9.90;6.10
9271;DHT22;4673;53.458;9.940;2024-03-25T14:54:22;9.90;6.20
9271;DHT22;4673;53.458;9.940;2024-03-25T14:56:47;9.60;5.00
9271;DHT22;4673;53.458;9.940;2024-03-25T14:59:13;9.40;5.00
9271;DHT22;4673;53.458;9.940;2024-03-25T15:01:39;9.70;6.00
9271;DHT22;4673;53.458;9.940;2024-03-25T15:04:05;10.00;5.00
9271;DHT22;4673;53.458;9.940;2024-03-25T15:06:35;10.20;5.00
9271;DHT22;4673;53.458;9.940;2024-03-25T15:09:01;10.00;5.00
9271;DHT22;4673;53.458;9.940;2024-03-25T15:11:27;10.00;5.00
9271;DHT22;4673;53.458;9.940;2024-03-25T15:13:53;9.90;5.00
9271;DHT22;4673;53.458;9.940;2024-03-25T15:16:18;9.80;5.00
9271;DHT22;4673;53.458;9.940;2024-03-25T15:18:44;9.60;5.00
9271;DHT22;4673;53.458;9.940;2024-03-25T15:21:10;9.50;5.00
9271;DHT22;4673;53.458;9.940;2024-03-25T15:23:36;9.30;5.00
9271;DHT22;4673;53.458;9.940;2024-03-25T15:26:02;9.10;5.00
9271;DHT22;4673;53.458;9.940;2024-03-25T15:28:28;9.10;5.00
9271;DHT22;4673;53.458;9.940;2024-03-25T15:30:55;8.90;5.00
9271;DHT22;4673;53.458;9.940;2024-03-25T15:33:22;8.90;5.00
9271;DHT22;4673;53.458;9.940;2024-03-25T15:35:48;8.80;5.50
9271;DHT22;4673;53.458;9.940;2024-03-25T15:38:14;9.00;5.10
9271;DHT22;4673;53.458;9.940;2024-03-25T15:40:40;9.10;5.00
9271;DHT22;4673;53.458;9.940;2024-03-25T15:43:06;9.20;5.00
9271;DHT22;4673;53.458;9.940;2024-03-25T15:45:32;9.40;5.00
9271;DHT22;4673;53.458;9.940;2024-03-25T15:47:58;9.60;5.00
9271;DHT22;4673;53.458;9.940;2024-03-25T15:50:24;9.60;5.00
9271;DHT22;4673;53.458;9.940;2024-03-25T15:52:50;9.70;5.00
9271;DHT22;4673;53.458;9.940;2024-03-25T15:55:15;9.70;5.00
9271;DHT22;4673;53.458;9.940;2024-03-25T15:57:41;9.70;5.00
9271;DHT22;4673;53.458;9.940;2024-03-25T16:00:08;9.70;5.00
9271;DHT22;4673;53.458;9.940;2024-03-25T16:02:35;9.70;5.00
9271;DHT22;4673;53.458;9.940;2024-03-25T16:05:01;9.70;5.00
9271;DHT22;4673;53.458;9.940;2024-03-25T16:07:27;9.60;5.00
9271;DHT22;4673;53.458;9.940;2024-03-25T16:09:52;9.50;5.00
9271;DHT22;4673;53.458;9.940;2024-03-25T16:12:18;9.30;5.00
9271;DHT22;4673;53.458;9.940;2024-03-25T16:14:44;9.40;5.00
9271;DHT22;4673;53.458;9.940;2024-03-25T16:17:12;9.40;5.00
9271;DHT22;4673;53.458;9.940;2024-03-25T16:19:38;9.30;5.00